Hunter, Texas
Current Conditions -  °F | °C
As of 11:51 AM on Monday 24 Nov 2014 (Local Time) from KBAZ Reporting Station
Clear Clear  
Wind Chill: 65°   Ceiling: Unl
Heat Index: 65°   Visibility: 10mi
Dew Point: 29°   Wind: 13mph
Humidity: 26%   Direction: 360°N
Pressure: 30.09"   Gusts: NA
Location:  29.7667°N, 98.1818°W
Report Text: KBAZ 241751Z 36011KT 10SM CLR 18/M02 A3009 RMK AO2 SLP184 T01831017 10189 20100 50005
Loading
Personal Weather Stations






























Interactive Weather Map New forecast layout! Learn more

10-Day Weather Forecast

Advertisements
Track Severe Weather on mobile